Lawrenceville, Pennsylvania
Current Conditions -  °F | °C
As of 8:53 AM on Thursday 30 Oct 2014 (Local Time) from KELM Reporting Station
Overcast Overcast  
Wind Chill: 41°   Ceiling: 3300
Heat Index: 44°   Visibility: 10mi
Dew Point: 38°   Wind: 6mph
Humidity: 79%   Direction: 240°WSW
Pressure: 30.04"   Gusts: NA
Location:  42°N, 77.13°W
Report Text: KELM 301253Z 24005KT 10SM OVC033 07/03 A3004 RMK AO2 SLP176 T00670033
Loading
Personal Weather Stations






























Interactive Weather Map
Tropical Storm Tracking
New forecast layout! Learn more

10-Day Weather Forecast

Advertisements
Track Severe Weather on mobile